sensor_id;sensor_type;location;lat;lon;timestamp;P1;durP1;ratioP1;P2;durP2;ratioP2
23658;SDS011;12006;42.666;23.326;2022-11-20T00:00:23;3.53;;;1.90;;
23658;SDS011;12006;42.666;23.326;2022-11-20T00:02:49;3.40;;;1.27;;
23658;SDS011;12006;42.666;23.326;2022-11-20T00:05:14;2.30;;;1.35;;
23658;SDS011;12006;42.666;23.326;2022-11-20T00:07:40;1.00;;;0.80;;
23658;SDS011;12006;42.666;23.326;2022-11-20T00:10:06;3.25;;;2.58;;
23658;SDS011;12006;42.666;23.326;2022-11-20T00:12:31;3.97;;;3.63;;
23658;SDS011;12006;42.666;23.326;2022-11-20T00:14:57;7.93;;;4.47;;
23658;SDS011;12006;42.666;23.326;2022-11-20T00:17:22;4.43;;;3.60;;
23658;SDS011;12006;42.666;23.326;2022-11-20T00:19:47;3.30;;;2.80;;
23658;SDS011;12006;42.666;23.326;2022-11-20T00:22:13;3.13;;;1.25;;
23658;SDS011;12006;42.666;23.326;2022-11-20T00:24:39;3.38;;;1.00;;
23658;SDS011;12006;42.666;23.326;2022-11-20T00:27:04;3.70;;;1.25;;
23658;SDS011;12006;42.666;23.326;2022-11-20T00:29:29;2.25;;;1.10;;
23658;SDS011;12006;42.666;23.326;2022-11-20T00:31:55;1.75;;;0.90;;
23658;SDS011;12006;42.666;23.326;2022-11-20T00:34:20;1.60;;;1.00;;
23658;SDS011;12006;42.666;23.326;2022-11-20T00:36:45;1.13;;;0.90;;
23658;SDS011;12006;42.666;23.326;2022-11-20T00:39:11;3.83;;;1.10;;
23658;SDS011;12006;42.666;23.326;2022-11-20T00:41:36;2.42;;;1.00;;
23658;SDS011;12006;42.666;23.326;2022-11-20T00:44:02;2.15;;;1.00;;
23658;SDS011;12006;42.666;23.326;2022-11-20T00:46:27;2.15;;;0.75;;
23658;SDS011;12006;42.666;23.326;2022-11-20T00:48:53;1.25;;;0.93;;
23658;SDS011;12006;42.666;23.326;2022-11-20T00:51:19;2.45;;;0.70;;
23658;SDS011;12006;42.666;23.326;2022-11-20T00:53:47;1.85;;;0.85;;
23658;SDS011;12006;42.666;23.326;2022-11-20T00:56:14;1.13;;;1.00;;
23658;SDS011;12006;42.666;23.326;2022-11-20T00:58:43;1.45;;;0.80;;
23658;SDS011;12006;42.666;23.326;2022-11-20T01:01:10;2.17;;;1.10;;
23658;SDS011;12006;42.666;23.326;2022-11-20T01:03:40;2.15;;;0.80;;
23658;SDS011;12006;42.666;23.326;2022-11-20T01:08:46;2.95;;;1.05;;
23658;SDS011;12006;42.666;23.326;2022-11-20T01:11:22;1.92;;;0.90;;
23658;SDS011;12006;42.666;23.326;2022-11-20T01:13:50;2.03;;;0.70;;
23658;SDS011;12006;42.666;23.326;2022-11-20T01:16:19;2.25;;;1.10;;
23658;SDS011;12006;42.666;23.326;2022-11-20T01:18:46;1.20;;;0.77;;
23658;SDS011;12006;42.666;23.326;2022-11-20T01:21:15;1.40;;;0.70;;
23658;SDS011;12006;42.666;23.326;2022-11-20T01:23:44;1.40;;;0.80;;
23658;SDS011;12006;42.666;23.326;2022-11-20T01:26:11;4.20;;;0.98;;
23658;SDS011;12006;42.666;23.326;2022-11-20T01:28:38;3.40;;;0.80;;
23658;SDS011;12006;42.666;23.326;2022-11-20T01:31:37;1.88;;;0.70;;
23658;SDS011;12006;42.666;23.326;2022-11-20T01:34:01;1.00;;;0.82;;
23658;SDS011;12006;42.666;23.326;2022-11-20T01:36:32;1.60;;;0.70;;
23658;SDS011;12006;42.666;23.326;2022-11-20T01:38:59;1.38;;;0.65;;
23658;SDS011;12006;42.666;23.326;2022-11-20T01:41:28;1.08;;;0.98;;
23658;SDS011;12006;42.666;23.326;2022-11-20T01:44:14;2.42;;;1.17;;
23658;SDS011;12006;42.666;23.326;2022-11-20T01:49:29;1.17;;;0.70;;
23658;SDS011;12006;42.666;23.326;2022-11-20T01:52:10;1.38;;;0.80;;
23658;SDS011;12006;42.666;23.326;2022-11-20T01:55:07;1.98;;;1.10;;
23658;SDS011;12006;42.666;23.326;2022-11-20T01:57:38;1.30;;;0.93;;
23658;SDS011;12006;42.666;23.326;2022-11-20T02:00:09;1.20;;;1.10;;
23658;SDS011;12006;42.666;23.326;2022-11-20T02:02:37;1.42;;;0.77;;
23658;SDS011;12006;42.666;23.326;2022-11-20T02:05:08;1.05;;;0.90;;
23658;SDS011;12006;42.666;23.326;2022-11-20T02:07:42;1.48;;;0.80;;
23658;SDS011;12006;42.666;23.326;2022-11-20T02:10:08;2.72;;;1.10;;
23658;SDS011;12006;42.666;23.326;2022-11-20T02:12:33;1.10;;;1.00;;
23658;SDS011;12006;42.666;23.326;2022-11-20T02:15:18;1.13;;;0.77;;
23658;SDS011;12006;42.666;23.326;2022-11-20T02:17:43;2.10;;;0.70;;
23658;SDS011;12006;42.666;23.326;2022-11-20T02:20:08;1.30;;;0.88;;
23658;SDS011;12006;42.666;23.326;2022-11-20T02:22:47;1.95;;;1.13;;
23658;SDS011;12006;42.666;23.326;2022-11-20T02:25:24;1.95;;;1.10;;
23658;SDS011;12006;42.666;23.326;2022-11-20T02:27:52;1.27;;;0.80;;
23658;SDS011;12006;42.666;23.326;2022-11-20T02:30:18;1.70;;;0.70;;
23658;SDS011;12006;42.666;23.326;2022-11-20T02:32:43;1.42;;;0.80;;
23658;SDS011;12006;42.666;23.326;2022-11-20T02:35:54;1.20;;;0.70;;
23658;SDS011;12006;42.666;23.326;2022-11-20T02:37:56;2.85;;;0.75;;
23658;SDS011;12006;42.666;23.326;2022-11-20T02:40:24;1.48;;;0.90;;
23658;SDS011;12006;42.666;23.326;2022-11-20T02:42:53;2.92;;;0.80;;
23658;SDS011;12006;42.666;23.326;2022-11-20T02:45:19;1.75;;;0.88;;
23658;SDS011;12006;42.666;23.326;2022-11-20T02:47:45;2.70;;;0.80;;
23658;SDS011;12006;42.666;23.326;2022-11-20T02:50:10;1.83;;;0.60;;
23658;SDS011;12006;42.666;23.326;2022-11-20T02:52:36;0.70;;;0.70;;
23658;SDS011;12006;42.666;23.326;2022-11-20T02:55:01;1.15;;;0.73;;
23658;SDS011;12006;42.666;23.326;2022-11-20T02:57:27;1.65;;;1.02;;
23658;SDS011;12006;42.666;23.326;2022-11-20T02:59:53;1.40;;;1.08;;
23658;SDS011;12006;42.666;23.326;2022-11-20T03:02:18;1.60;;;0.90;;
23658;SDS011;12006;42.666;23.326;2022-11-20T03:04:44;2.13;;;0.90;;
23658;SDS011;12006;42.666;23.326;2022-11-20T03:07:09;2.15;;;0.90;;
23658;SDS011;12006;42.666;23.326;2022-11-20T03:09:34;1.33;;;0.98;;
23658;SDS011;12006;42.666;23.326;2022-11-20T03:12:00;1.63;;;0.90;;
23658;SDS011;12006;42.666;23.326;2022-11-20T03:14:26;2.78;;;1.00;;
23658;SDS011;12006;42.666;23.326;2022-11-20T03:16:51;1.95;;;0.95;;
23658;SDS011;12006;42.666;23.326;2022-11-20T03:19:17;1.63;;;0.90;;
23658;SDS011;12006;42.666;23.326;2022-11-20T03:21:42;2.65;;;1.00;;
23658;SDS011;12006;42.666;23.326;2022-11-20T03:24:08;2.58;;;1.00;;
23658;SDS011;12006;42.666;23.326;2022-11-20T03:26:33;1.88;;;0.80;;
23658;SDS011;12006;42.666;23.326;2022-11-20T03:29:00;2.65;;;0.95;;
23658;SDS011;12006;42.666;23.326;2022-11-20T03:31:28;1.80;;;0.95;;
23658;SDS011;12006;42.666;23.326;2022-11-20T03:33:55;1.95;;;1.05;;
23658;SDS011;12006;42.666;23.326;2022-11-20T03:36:21;0.80;;;0.80;;
23658;SDS011;12006;42.666;23.326;2022-11-20T03:38:47;1.70;;;0.77;;
23658;SDS011;12006;42.666;23.326;2022-11-20T03:41:17;1.92;;;1.10;;
23658;SDS011;12006;42.666;23.326;2022-11-20T03:43:51;2.03;;;1.10;;
23658;SDS011;12006;42.666;23.326;2022-11-20T03:46:18;1.60;;;0.90;;
23658;SDS011;12006;42.666;23.326;2022-11-20T03:48:45;4.03;;;1.35;;
23658;SDS011;12006;42.666;23.326;2022-11-20T03:53:38;2.00;;;0.88;;
23658;SDS011;12006;42.666;23.326;2022-11-20T03:56:04;2.95;;;1.08;;
23658;SDS011;12006;42.666;23.326;2022-11-20T03:58:30;2.97;;;0.90;;
23658;SDS011;12006;42.666;23.326;2022-11-20T04:00:55;0.98;;;0.80;;
23658;SDS011;12006;42.666;23.326;2022-11-20T04:03:21;2.35;;;0.80;;
23658;SDS011;12006;42.666;23.326;2022-11-20T04:05:46;1.60;;;0.90;;
23658;SDS011;12006;42.666;23.326;2022-11-20T04:08:11;2.45;;;1.00;;
23658;SDS011;12006;42.666;23.326;2022-11-20T04:10:37;1.80;;;0.90;;
23658;SDS011;12006;42.666;23.326;2022-11-20T04:13:02;1.63;;;0.95;;
23658;SDS011;12006;42.666;23.326;2022-11-20T04:15:28;1.70;;;0.88;;
23658;SDS011;12006;42.666;23.326;2022-11-20T04:17:54;2.83;;;0.98;;
23658;SDS011;12006;42.666;23.326;2022-11-20T04:20:19;2.65;;;1.00;;
23658;SDS011;12006;42.666;23.326;2022-11-20T04:22:45;1.25;;;0.70;;
23658;SDS011;12006;42.666;23.326;2022-11-20T04:25:10;2.80;;;0.75;;
23658;SDS011;12006;42.666;23.326;2022-11-20T04:27:36;1.75;;;0.70;;
23658;SDS011;12006;42.666;23.326;2022-11-20T04:30:01;2.03;;;0.75;;
23658;SDS011;12006;42.666;23.326;2022-11-20T04:32:27;1.70;;;0.80;;
23658;SDS011;12006;42.666;23.326;2022-11-20T04:34:52;3.10;;;0.98;;
23658;SDS011;12006;42.666;23.326;2022-11-20T04:37:18;3.10;;;1.05;;
23658;SDS011;12006;42.666;23.326;2022-11-20T04:39:44;2.92;;;0.90;;
23658;SDS011;12006;42.666;23.326;2022-11-20T04:42:09;2.25;;;0.73;;
23658;SDS011;12006;42.666;23.326;2022-11-20T04:44:53;3.22;;;1.00;;
23658;SDS011;12006;42.666;23.326;2022-11-20T04:47:19;2.28;;;1.08;;
23658;SDS011;12006;42.666;23.326;2022-11-20T04:49:44;1.63;;;0.70;;
23658;SDS011;12006;42.666;23.326;2022-11-20T04:52:10;3.53;;;1.20;;
23658;SDS011;12006;42.666;23.326;2022-11-20T04:54:35;3.50;;;1.10;;
23658;SDS011;12006;42.666;23.326;2022-11-20T04:57:01;2.88;;;1.08;;
23658;SDS011;12006;42.666;23.326;2022-11-20T04:59:26;2.05;;;0.70;;
23658;SDS011;12006;42.666;23.326;2022-11-20T05:01:52;1.35;;;0.73;;
23658;SDS011;12006;42.666;23.326;2022-11-20T05:04:17;2.78;;;0.88;;
23658;SDS011;12006;42.666;23.326;2022-11-20T05:06:42;3.28;;;0.90;;
23658;SDS011;12006;42.666;23.326;2022-11-20T05:09:08;1.58;;;0.65;;
23658;SDS011;12006;42.666;23.326;2022-11-20T05:11:33;1.40;;;0.70;;
23658;SDS011;12006;42.666;23.326;2022-11-20T05:13:59;1.55;;;0.70;;
23658;SDS011;12006;42.666;23.326;2022-11-20T05:16:25;0.60;;;0.50;;
23658;SDS011;12006;42.666;23.326;2022-11-20T05:18:51;1.55;;;0.70;;
23658;SDS011;12006;42.666;23.326;2022-11-20T05:21:18;1.17;;;0.75;;
23658;SDS011;12006;42.666;23.326;2022-11-20T05:23:44;1.65;;;0.90;;
23658;SDS011;12006;42.666;23.326;2022-11-20T05:26:17;2.03;;;0.60;;
23658;SDS011;12006;42.666;23.326;2022-11-20T05:28:44;1.85;;;0.75;;
23658;SDS011;12006;42.666;23.326;2022-11-20T05:31:12;1.92;;;1.02;;
23658;SDS011;12006;42.666;23.326;2022-11-20T05:33:40;1.48;;;1.08;;
23658;SDS011;12006;42.666;23.326;2022-11-20T05:36:07;2.53;;;0.85;;
23658;SDS011;12006;42.666;23.326;2022-11-20T05:38:33;2.33;;;1.38;;
23658;SDS011;12006;42.666;23.326;2022-11-20T05:43:34;3.95;;;1.00;;
23658;SDS011;12006;42.666;23.326;2022-11-20T05:46:01;1.38;;;0.82;;
23658;SDS011;12006;42.666;23.326;2022-11-20T05:48:27;2.22;;;1.25;;
23658;SDS011;12006;42.666;23.326;2022-11-20T05:50:52;2.50;;;1.00;;
23658;SDS011;12006;42.666;23.326;2022-11-20T05:53:17;3.00;;;1.15;;
23658;SDS011;12006;42.666;23.326;2022-11-20T05:55:43;1.40;;;0.85;;
23658;SDS011;12006;42.666;23.326;2022-11-20T05:58:08;2.28;;;0.80;;
23658;SDS011;12006;42.666;23.326;2022-11-20T06:00:34;1.83;;;1.20;;
23658;SDS011;12006;42.666;23.326;2022-11-20T06:02:59;0.95;;;0.75;;
23658;SDS011;12006;42.666;23.326;2022-11-20T06:05:24;1.80;;;0.98;;
23658;SDS011;12006;42.666;23.326;2022-11-20T06:07:50;2.88;;;1.13;;
23658;SDS011;12006;42.666;23.326;2022-11-20T06:10:15;2.40;;;1.02;;
23658;SDS011;12006;42.666;23.326;2022-11-20T06:12:40;1.90;;;1.15;;
23658;SDS011;12006;42.666;23.326;2022-11-20T06:15:06;2.67;;;0.98;;
23658;SDS011;12006;42.666;23.326;2022-11-20T06:17:32;3.05;;;1.05;;
23658;SDS011;12006;42.666;23.326;2022-11-20T06:19:57;3.53;;;1.30;;
23658;SDS011;12006;42.666;23.326;2022-11-20T06:22:23;2.08;;;1.23;;
23658;SDS011;12006;42.666;23.326;2022-11-20T06:24:48;3.90;;;1.38;;
23658;SDS011;12006;42.666;23.326;2022-11-20T06:27:13;2.33;;;1.58;;
23658;SDS011;12006;42.666;23.326;2022-11-20T06:29:39;1.33;;;0.90;;
23658;SDS011;12006;42.666;23.326;2022-11-20T06:32:04;2.28;;;1.00;;
23658;SDS011;12006;42.666;23.326;2022-11-20T06:34:30;2.80;;;0.98;;
23658;SDS011;12006;42.666;23.326;2022-11-20T06:36:55;3.10;;;1.20;;
23658;SDS011;12006;42.666;23.326;2022-11-20T06:39:20;3.63;;;1.70;;
23658;SDS011;12006;42.666;23.326;2022-11-20T06:41:46;1.20;;;0.85;;
23658;SDS011;12006;42.666;23.326;2022-11-20T06:44:11;1.42;;;0.85;;
23658;SDS011;12006;42.666;23.326;2022-11-20T06:46:36;2.03;;;0.75;;
23658;SDS011;12006;42.666;23.326;2022-11-20T06:49:02;4.40;;;1.10;;
23658;SDS011;12006;42.666;23.326;2022-11-20T06:51:27;3.00;;;1.13;;
23658;SDS011;12006;42.666;23.326;2022-11-20T06:53:53;2.13;;;1.30;;
23658;SDS011;12006;42.666;23.326;2022-11-20T06:56:18;3.17;;;0.90;;
23658;SDS011;12006;42.666;23.326;2022-11-20T06:58:44;3.00;;;1.35;;
23658;SDS011;12006;42.666;23.326;2022-11-20T07:01:10;3.03;;;1.40;;
23658;SDS011;12006;42.666;23.326;2022-11-20T07:03:37;1.48;;;1.10;;
23658;SDS011;12006;42.666;23.326;2022-11-20T07:06:03;2.90;;;1.30;;
23658;SDS011;12006;42.666;23.326;2022-11-20T07:08:29;2.00;;;1.10;;
23658;SDS011;12006;42.666;23.326;2022-11-20T07:11:02;2.53;;;1.20;;
23658;SDS011;12006;42.666;23.326;2022-11-20T07:13:29;1.85;;;1.23;;
23658;SDS011;12006;42.666;23.326;2022-11-20T07:15:55;1.30;;;0.50;;
23658;SDS011;12006;42.666;23.326;2022-11-20T07:18:23;2.13;;;0.90;;
23658;SDS011;12006;42.666;23.326;2022-11-20T07:20:49;3.60;;;1.00;;
23658;SDS011;12006;42.666;23.326;2022-11-20T07:23:14;1.58;;;0.95;;
23658;SDS011;12006;42.666;23.326;2022-11-20T07:25:40;1.83;;;0.82;;
23658;SDS011;12006;42.666;23.326;2022-11-20T07:28:05;0.82;;;0.55;;
23658;SDS011;12006;42.666;23.326;2022-11-20T07:30:30;3.42;;;0.73;;
23658;SDS011;12006;42.666;23.326;2022-11-20T07:32:56;2.83;;;1.02;;
23658;SDS011;12006;42.666;23.326;2022-11-20T07:35:22;1.83;;;0.82;;
23658;SDS011;12006;42.666;23.326;2022-11-20T07:37:48;3.92;;;1.10;;
23658;SDS011;12006;42.666;23.326;2022-11-20T07:40:14;3.28;;;0.90;;
23658;SDS011;12006;42.666;23.326;2022-11-20T07:42:50;4.25;;;0.93;;
23658;SDS011;12006;42.666;23.326;2022-11-20T07:45:20;4.18;;;1.05;;
23658;SDS011;12006;42.666;23.326;2022-11-20T07:47:46;2.05;;;0.90;;
23658;SDS011;12006;42.666;23.326;2022-11-20T07:50:12;2.40;;;1.08;;
23658;SDS011;12006;42.666;23.326;2022-11-20T07:52:38;3.25;;;1.08;;
23658;SDS011;12006;42.666;23.326;2022-11-20T07:55:03;2.35;;;1.30;;
23658;SDS011;12006;42.666;23.326;2022-11-20T07:57:30;4.22;;;1.83;;
23658;SDS011;12006;42.666;23.326;2022-11-20T07:59:55;3.30;;;1.17;;
23658;SDS011;12006;42.666;23.326;2022-11-20T08:02:20;1.33;;;0.90;;
23658;SDS011;12006;42.666;23.326;2022-11-20T08:04:46;2.00;;;1.10;;
23658;SDS011;12006;42.666;23.326;2022-11-20T08:07:11;2.60;;;0.98;;
23658;SDS011;12006;42.666;23.326;2022-11-20T08:09:37;4.20;;;1.33;;
23658;SDS011;12006;42.666;23.326;2022-11-20T08:12:02;3.92;;;1.20;;
23658;SDS011;12006;42.666;23.326;2022-11-20T08:14:46;2.38;;;1.30;;
23658;SDS011;12006;42.666;23.326;2022-11-20T08:17:11;2.55;;;1.08;;
23658;SDS011;12006;42.666;23.326;2022-11-20T08:19:37;3.22;;;1.08;;
23658;SDS011;12006;42.666;23.326;2022-11-20T08:22:02;1.75;;;0.98;;
23658;SDS011;12006;42.666;23.326;2022-11-20T08:24:28;2.88;;;1.05;;
23658;SDS011;12006;42.666;23.326;2022-11-20T08:26:53;2.72;;;1.10;;
23658;SDS011;12006;42.666;23.326;2022-11-20T08:29:18;2.63;;;1.00;;
23658;SDS011;12006;42.666;23.326;2022-11-20T08:31:44;1.20;;;1.10;;
23658;SDS011;12006;42.666;23.326;2022-11-20T08:34:10;5.45;;;1.20;;
23658;SDS011;12006;42.666;23.326;2022-11-20T08:36:35;2.33;;;1.35;;
23658;SDS011;12006;42.666;23.326;2022-11-20T08:39:01;8.18;;;1.67;;
23658;SDS011;12006;42.666;23.326;2022-11-20T08:41:28;3.65;;;1.50;;
23658;SDS011;12006;42.666;23.326;2022-11-20T08:44:03;5.20;;;1.33;;
23658;SDS011;12006;42.666;23.326;2022-11-20T08:46:34;3.85;;;1.52;;
23658;SDS011;12006;42.666;23.326;2022-11-20T08:49:06;3.40;;;1.27;;
23658;SDS011;12006;42.666;23.326;2022-11-20T08:51:33;2.33;;;1.05;;
23658;SDS011;12006;42.666;23.326;2022-11-20T08:53:59;4.45;;;1.95;;
23658;SDS011;12006;42.666;23.326;2022-11-20T08:56:25;2.30;;;1.58;;
23658;SDS011;12006;42.666;23.326;2022-11-20T08:58:50;2.22;;;1.35;;
23658;SDS011;12006;42.666;23.326;2022-11-20T09:01:17;2.28;;;1.23;;
23658;SDS011;12006;42.666;23.326;2022-11-20T09:03:43;2.92;;;1.67;;
23658;SDS011;12006;42.666;23.326;2022-11-20T09:06:09;3.80;;;1.95;;
23658;SDS011;12006;42.666;23.326;2022-11-20T09:08:35;3.58;;;2.13;;
23658;SDS011;12006;42.666;23.326;2022-11-20T09:11:01;3.63;;;2.08;;
23658;SDS011;12006;42.666;23.326;2022-11-20T09:13:27;4.32;;;2.38;;
23658;SDS011;12006;42.666;23.326;2022-11-20T09:15:54;3.65;;;2.47;;
23658;SDS011;12006;42.666;23.326;2022-11-20T09:18:21;1.65;;;0.57;;
23658;SDS011;12006;42.666;23.326;2022-11-20T09:20:46;3.60;;;1.23;;
23658;SDS011;12006;42.666;23.326;2022-11-20T09:23:12;1.77;;;0.90;;
23658;SDS011;12006;42.666;23.326;2022-11-20T09:25:37;1.75;;;1.30;;
23658;SDS011;12006;42.666;23.326;2022-11-20T09:28:03;3.50;;;1.27;;
23658;SDS011;12006;42.666;23.326;2022-11-20T09:30:29;2.10;;;0.97;;
23658;SDS011;12006;42.666;23.326;2022-11-20T09:32:55;1.08;;;0.88;;
23658;SDS011;12006;42.666;23.326;2022-11-20T09:35:21;3.60;;;0.83;;
23658;SDS011;12006;42.666;23.326;2022-11-20T09:37:47;3.30;;;1.13;;
23658;SDS011;12006;42.666;23.326;2022-11-20T09:42:58;1.70;;;1.38;;
23658;SDS011;12006;42.666;23.326;2022-11-20T09:45:39;1.98;;;1.50;;
23658;SDS011;12006;42.666;23.326;2022-11-20T09:53:36;1.95;;;1.10;;
23658;SDS011;12006;42.666;23.326;2022-11-20T09:56:19;2.72;;;1.52;;
23658;SDS011;12006;42.666;23.326;2022-11-20T09:58:47;2.55;;;1.17;;
23658;SDS011;12006;42.666;23.326;2022-11-20T10:01:16;3.42;;;1.83;;
23658;SDS011;12006;42.666;23.326;2022-11-20T10:07:25;2.70;;;1.65;;
23658;SDS011;12006;42.666;23.326;2022-11-20T10:09:40;2.70;;;1.80;;
23658;SDS011;12006;42.666;23.326;2022-11-20T10:12:18;3.88;;;1.98;;
23658;SDS011;12006;42.666;23.326;2022-11-20T10:18:07;1.67;;;1.58;;
23658;SDS011;12006;42.666;23.326;2022-11-20T10:23:49;5.00;;;2.17;;
23658;SDS011;12006;42.666;23.326;2022-11-20T10:26:59;5.03;;;3.83;;
23658;SDS011;12006;42.666;23.326;2022-11-20T10:29:47;5.38;;;3.80;;
23658;SDS011;12006;42.666;23.326;2022-11-20T10:32:18;3.58;;;2.85;;
23658;SDS011;12006;42.666;23.326;2022-11-20T10:37:24;4.72;;;3.05;;
23658;SDS011;12006;42.666;23.326;2022-11-20T10:42:41;5.55;;;3.50;;
23658;SDS011;12006;42.666;23.326;2022-11-20T10:47:53;5.63;;;3.88;;
23658;SDS011;12006;42.666;23.326;2022-11-20T10:51:08;5.78;;;3.35;;
23658;SDS011;12006;42.666;23.326;2022-11-20T10:56:20;6.80;;;3.50;;
23658;SDS011;12006;42.666;23.326;2022-11-20T11:01:20;5.43;;;3.72;;
23658;SDS011;12006;42.666;23.326;2022-11-20T11:03:48;5.63;;;4.07;;
23658;SDS011;12006;42.666;23.326;2022-11-20T11:06:24;8.13;;;4.20;;
23658;SDS011;12006;42.666;23.326;2022-11-20T11:08:58;5.47;;;3.72;;
23658;SDS011;12006;42.666;23.326;2022-11-20T11:11:32;9.75;;;3.03;;
23658;SDS011;12006;42.666;23.326;2022-11-20T11:14:13;6.67;;;4.57;;
23658;SDS011;12006;42.666;23.326;2022-11-20T11:16:50;7.07;;;3.40;;
23658;SDS011;12006;42.666;23.326;2022-11-20T11:19:18;2.63;;;1.53;;
23658;SDS011;12006;42.666;23.326;2022-11-20T11:21:47;2.07;;;1.57;;
23658;SDS011;12006;42.666;23.326;2022-11-20T11:24:21;2.37;;;1.43;;
23658;SDS011;12006;42.666;23.326;2022-11-20T11:26:52;3.00;;;1.40;;
23658;SDS011;12006;42.666;23.326;2022-11-20T11:29:22;5.00;;;1.10;;
23658;SDS011;12006;42.666;23.326;2022-11-20T11:31:48;1.37;;;0.80;;
23658;SDS011;12006;42.666;23.326;2022-11-20T11:34:15;2.13;;;0.80;;
23658;SDS011;12006;42.666;23.326;2022-11-20T11:36:47;3.47;;;0.87;;
23658;SDS011;12006;42.666;23.326;2022-11-20T11:39:20;1.50;;;0.87;;
23658;SDS011;12006;42.666;23.326;2022-11-20T11:41:46;2.07;;;0.63;;
23658;SDS011;12006;42.666;23.326;2022-11-20T11:44:16;2.80;;;0.70;;
23658;SDS011;12006;42.666;23.326;2022-11-20T11:47:00;4.13;;;0.90;;
23658;SDS011;12006;42.666;23.326;2022-11-20T11:49:28;1.53;;;0.77;;
23658;SDS011;12006;42.666;23.326;2022-11-20T11:51:58;4.03;;;1.53;;
23658;SDS011;12006;42.666;23.326;2022-11-20T12:00:31;1.47;;;1.00;;
23658;SDS011;12006;42.666;23.326;2022-11-20T12:08:14;0.63;;;0.60;;
23658;SDS011;12006;42.666;23.326;2022-11-20T12:16:49;2.57;;;0.80;;
23658;SDS011;12006;42.666;23.326;2022-11-20T12:19:15;1.70;;;0.60;;
23658;SDS011;12006;42.666;23.326;2022-11-20T12:22:02;2.50;;;0.50;;
23658;SDS011;12006;42.666;23.326;2022-11-20T12:30:06;3.53;;;1.30;;
23658;SDS011;12006;42.666;23.326;2022-11-20T12:41:06;3.33;;;0.67;;
23658;SDS011;12006;42.666;23.326;2022-11-20T12:43:39;2.10;;;0.70;;
23658;SDS011;12006;42.666;23.326;2022-11-20T13:02:58;3.70;;;1.70;;
23658;SDS011;12006;42.666;23.326;2022-11-20T13:06:02;3.50;;;2.17;;
23658;SDS011;12006;42.666;23.326;2022-11-20T13:08:36;4.93;;;2.00;;
23658;SDS011;12006;42.666;23.326;2022-11-20T13:16:12;3.43;;;2.00;;
23658;SDS011;12006;42.666;23.326;2022-11-20T13:19:13;5.53;;;1.97;;
23658;SDS011;12006;42.666;23.326;2022-11-20T13:21:42;3.63;;;1.73;;
23658;SDS011;12006;42.666;23.326;2022-11-20T13:26:48;5.80;;;2.27;;
23658;SDS011;12006;42.666;23.326;2022-11-20T13:29:24;4.67;;;2.60;;
23658;SDS011;12006;42.666;23.326;2022-11-20T13:31:49;3.87;;;2.67;;
23658;SDS011;12006;42.666;23.326;2022-11-20T13:34:25;4.43;;;2.60;;
23658;SDS011;12006;42.666;23.326;2022-11-20T13:36:53;4.63;;;2.63;;
23658;SDS011;12006;42.666;23.326;2022-11-20T13:41:55;3.53;;;2.93;;
23658;SDS011;12006;42.666;23.326;2022-11-20T13:44:24;3.67;;;2.50;;
23658;SDS011;12006;42.666;23.326;2022-11-20T13:47:03;3.17;;;2.73;;
23658;SDS011;12006;42.666;23.326;2022-11-20T13:49:30;5.00;;;2.73;;
23658;SDS011;12006;42.666;23.326;2022-11-20T14:00:25;6.73;;;2.80;;
23658;SDS011;12006;42.666;23.326;2022-11-20T14:05:35;5.60;;;2.90;;
23658;SDS011;12006;42.666;23.326;2022-11-20T14:08:06;4.27;;;2.50;;
23658;SDS011;12006;42.666;23.326;2022-11-20T14:10:38;6.23;;;2.97;;
23658;SDS011;12006;42.666;23.326;2022-11-20T14:13:15;4.20;;;2.67;;
23658;SDS011;12006;42.666;23.326;2022-11-20T14:15:43;2.87;;;2.30;;
23658;SDS011;12006;42.666;23.326;2022-11-20T14:18:20;7.57;;;3.43;;
23658;SDS011;12006;42.666;23.326;2022-11-20T14:20:47;4.03;;;2.67;;
23658;SDS011;12006;42.666;23.326;2022-11-20T14:23:22;4.43;;;2.77;;
23658;SDS011;12006;42.666;23.326;2022-11-20T14:25:50;3.93;;;3.00;;
23658;SDS011;12006;42.666;23.326;2022-11-20T14:28:34;6.03;;;3.60;;
23658;SDS011;12006;42.666;23.326;2022-11-20T14:30:59;5.03;;;4.03;;
23658;SDS011;12006;42.666;23.326;2022-11-20T14:33:25;6.17;;;4.00;;
23658;SDS011;12006;42.666;23.326;2022-11-20T14:35:55;6.87;;;5.20;;
23658;SDS011;12006;42.666;23.326;2022-11-20T14:38:26;6.87;;;4.03;;
23658;SDS011;12006;42.666;23.326;2022-11-20T14:40:53;6.93;;;4.90;;
23658;SDS011;12006;42.666;23.326;2022-11-20T14:45:54;7.20;;;4.43;;
23658;SDS011;12006;42.666;23.326;2022-11-20T14:48:29;6.03;;;3.87;;
23658;SDS011;12006;42.666;23.326;2022-11-20T14:51:08;6.70;;;4.10;;
23658;SDS011;12006;42.666;23.326;2022-11-20T14:53:36;3.10;;;2.60;;
23658;SDS011;12006;42.666;23.326;2022-11-20T14:56:02;3.20;;;2.53;;
23658;SDS011;12006;42.666;23.326;2022-11-20T14:58:29;4.63;;;3.03;;
23658;SDS011;12006;42.666;23.326;2022-11-20T15:00:58;2.77;;;2.50;;
23658;SDS011;12006;42.666;23.326;2022-11-20T15:03:59;2.67;;;2.20;;
23658;SDS011;12006;42.666;23.326;2022-11-20T15:06:25;3.23;;;2.10;;
23658;SDS011;12006;42.666;23.326;2022-11-20T15:08:52;3.03;;;2.20;;
23658;SDS011;12006;42.666;23.326;2022-11-20T15:11:18;3.53;;;1.63;;
23658;SDS011;12006;42.666;23.326;2022-11-20T15:13:48;2.50;;;1.50;;
23658;SDS011;12006;42.666;23.326;2022-11-20T15:16:20;2.77;;;1.90;;
23658;SDS011;12006;42.666;23.326;2022-11-20T15:18:47;2.93;;;1.80;;
23658;SDS011;12006;42.666;23.326;2022-11-20T15:21:13;4.00;;;2.60;;
23658;SDS011;12006;42.666;23.326;2022-11-20T15:23:41;3.73;;;2.23;;
23658;SDS011;12006;42.666;23.326;2022-11-20T15:26:10;3.20;;;2.23;;
23658;SDS011;12006;42.666;23.326;2022-11-20T15:28:44;3.23;;;2.40;;
23658;SDS011;12006;42.666;23.326;2022-11-20T15:31:12;2.37;;;1.97;;
23658;SDS011;12006;42.666;23.326;2022-11-20T15:33:40;3.37;;;1.93;;
23658;SDS011;12006;42.666;23.326;2022-11-20T15:36:05;3.37;;;2.03;;
23658;SDS011;12006;42.666;23.326;2022-11-20T15:38:31;3.17;;;1.60;;
23658;SDS011;12006;42.666;23.326;2022-11-20T15:40:56;2.37;;;1.83;;
23658;SDS011;12006;42.666;23.326;2022-11-20T15:43:22;2.03;;;1.83;;
23658;SDS011;12006;42.666;23.326;2022-11-20T15:45:47;1.07;;;0.97;;
23658;SDS011;12006;42.666;23.326;2022-11-20T15:48:17;3.03;;;2.03;;
23658;SDS011;12006;42.666;23.326;2022-11-20T15:53:32;2.37;;;1.97;;
23658;SDS011;12006;42.666;23.326;2022-11-20T15:55:57;4.43;;;2.50;;
23658;SDS011;12006;42.666;23.326;2022-11-20T15:58:23;4.53;;;2.37;;
23658;SDS011;12006;42.666;23.326;2022-11-20T16:00:49;4.03;;;2.80;;
23658;SDS011;12006;42.666;23.326;2022-11-20T16:03:15;4.60;;;2.90;;
23658;SDS011;12006;42.666;23.326;2022-11-20T16:05:41;2.77;;;2.03;;
23658;SDS011;12006;42.666;23.326;2022-11-20T16:08:07;3.23;;;2.07;;
23658;SDS011;12006;42.666;23.326;2022-11-20T16:10:32;2.53;;;1.70;;
23658;SDS011;12006;42.666;23.326;2022-11-20T16:12:58;2.47;;;2.10;;
23658;SDS011;12006;42.666;23.326;2022-11-20T16:15:42;1.87;;;1.37;;
23658;SDS011;12006;42.666;23.326;2022-11-20T16:18:12;3.57;;;2.67;;
23658;SDS011;12006;42.666;23.326;2022-11-20T16:20:39;5.80;;;3.00;;
23658;SDS011;12006;42.666;23.326;2022-11-20T16:23:05;2.63;;;2.30;;
23658;SDS011;12006;42.666;23.326;2022-11-20T16:25:31;3.17;;;2.83;;
23658;SDS011;12006;42.666;23.326;2022-11-20T16:27:57;2.77;;;2.00;;
23658;SDS011;12006;42.666;23.326;2022-11-20T16:30:22;2.03;;;1.70;;
23658;SDS011;12006;42.666;23.326;2022-11-20T16:32:48;2.63;;;1.87;;
23658;SDS011;12006;42.666;23.326;2022-11-20T16:35:13;2.93;;;2.00;;
23658;SDS011;12006;42.666;23.326;2022-11-20T16:37:39;3.83;;;1.83;;